Πλησιέστερες Αναφορές METAR

 

LGTS - Thessaloniki/Makedonia-Elev 7m
Απόσταση από σταθμό: Ν 13km
Ενημερώθηκε: 17/01/2017 14:20
Σχεδόν νεφελώδης
Σχεδόν νεφελώδης
 Ανεμοι από μεταβλητός
Ανεμος: μεταβλητός 6 km/h
Θερμοκρασία: 8°C
Σημείο Δρόσου: 5°C
Υγρασία: 82%
Βαρόμετρο: 1013 hPa
Νέφωση: Σχεδόν νεφελώδης
Ορατότητα: 8 km
Λεπτομέρειες Νεφών: Διάσπαρτα Νέφη 152 m
Σχεδόν νεφελώδης 1067 m
2017/01/17 12:20 LGTS 171220Z VRB03KT 8000 FEW005 BKN035 08/05 Q1013 NOSIG
LGAV - Athens/Elef. Venizelos-Elev 94m
Απόσταση από σταθμό: ΝΝΑ 312km
Ενημερώθηκε: 17/01/2017 14:20
Διάσπαρτα Νέφη
Διάσπαρτα Νέφη
 Ανεμοι από ΝΝΔ
Ανεμος: ΝΝΔ 17 km/h
Θερμοκρασία: 14°C
Σημείο Δρόσου: 6°C
Υγρασία: 59%
Βαρόμετρο: 1011 hPa
Νέφωση: Διάσπαρτα Νέφη
Ορατότητα: 10 km
Λεπτομέρειες Νεφών: Διάσπαρτα Νέφη 1067 m
2017/01/17 12:20 LGAV 171220Z 20009KT 9999 FEW035 14/06 Q1011 NOSIG
 
LGAL - Alexandroupolis-Elev 3m
Απόσταση από σταθμό: Α 251km
Ενημερώθηκε: 17/01/2017 14:20
Ασθενής βροχή, Σχεδόν νεφελώδης
Ασθενής βροχή, Σχεδόν νεφελώδης
 Ανεμοι από ΒΒΑ
Ανεμος: ΒΒΑ 26 km/h
Θερμοκρασία: 6°C
Δείκτης Ψύχρας: 2°C
Σημείο Δρόσου: 4°C
Υγρασία: 87%
Βαρόμετρο: 1015 hPa
Περίληψη: Ασθενής βροχή
Νέφωση: Σχεδόν νεφελώδης
Ορατότητα: 10 km
Λεπτομέρειες Νεφών: Διάσπαρτα Νέφη 305 m
Διάσπαρτα Νέφη 610 m
Σχεδόν νεφελώδης 762 m
Σχεδόν νεφελώδης 1829 m
2017/01/17 12:20 LGAL 171220Z 03014KT 9999 -RA FEW010 FEW020TCU BKN025 BKN060 06/04 Q1015
LGKV - Kavala/Crysoupolis-Elev 5m
Απόσταση από σταθμό: ΑΒΑ 144km
Ενημερώθηκε: 17/01/2017 14:20
Βροχή, Συννεφιά
Βροχή, Συννεφιά
 Ανεμοι από ΑΒΑ
Ανεμος: ΑΒΑ 15 km/h
Θερμοκρασία: 7°C
Δείκτης Ψύχρας: 4°C
Σημείο Δρόσου: 6°C
Υγρασία: 93%
Βαρόμετρο: 1014 hPa
Περίληψη: Βροχή
Νέφωση: Συννεφιά
Ορατότητα: 9 km
Λεπτομέρειες Νεφών: Μερικώς νεφελώδης 366 m
Συννεφιά 762 m
2017/01/17 12:20 LGKV 171220Z 06008KT 9000 RA SCT012 OVC025 07/06 Q1014
 
LGSK - Skiathos Island-Elev 15m
Απόσταση από σταθμό: ΝΝΑ 168km
Ενημερώθηκε: 17/01/2017 13:50
Μερικώς νεφελώδης
Μερικώς νεφελώδης
 Ανεμοι από ΒΒΔ
Ανεμος: ΒΒΔ 15 km/h
Θερμοκρασία: 9°C
Δείκτης Ψύχρας: 7°C
Σημείο Δρόσου: 7°C
Υγρασία: 87%
Βαρόμετρο: 1013 hPa
Νέφωση: Μερικώς νεφελώδης
Ορατότητα: 10 km
Λεπτομέρειες Νεφών: Διάσπαρτα Νέφη 305 m
Μερικώς νεφελώδης 610 m
2017/01/17 11:50 LGSK 171150Z 33008KT 9999 FEW010 SCT020 09/07 Q1013
LGLM - Limnos Island-Elev 5m
Απόσταση από σταθμό: ΑΝΑ 210km
Ενημερώθηκε: 17/01/2017 14:20
Μερικώς νεφελώδης
Μερικώς νεφελώδης
 Ανεμοι από ΒΑ
Ανεμος: ΒΑ 19 km/h
Θερμοκρασία: 10°C
Δείκτης Ψύχρας: 7°C
Σημείο Δρόσου: 8°C
Υγρασία: 88%
Βαρόμετρο: 1013 hPa
Νέφωση: Μερικώς νεφελώδης
Ορατότητα: 10 km
Λεπτομέρειες Νεφών: Διάσπαρτα Νέφη 244 m
Διάσπαρτα Νέφη 549 m
Μερικώς νεφελώδης 610 m
2017/01/17 12:20 LGLM 171220Z 04010KT 9999 FEW008 FEW018CB SCT020 10/08 Q1013
 
LGMT - Mitilini Island-Elev 17m
Απόσταση από σταθμό: ΑΝΑ 358km
Ενημερώθηκε: 17/01/2017 14:20
Ασθενής βροχή, Συννεφιά
Ασθενής βροχή, Συννεφιά
 Ανεμοι από ΝΝΑ
Ανεμος: ΝΝΑ 13 km/h
Θερμοκρασία: 11°C
Σημείο Δρόσου: 10°C
Υγρασία: 94%
Βαρόμετρο: 1015 hPa
Περίληψη: Ασθενής βροχή
Νέφωση: Συννεφιά
Ορατότητα: 6 km
Λεπτομέρειες Νεφών: Διάσπαρτα Νέφη 549 m
Σχεδόν νεφελώδης 762 m
Συννεφιά 2134 m
2017/01/17 12:20 LGMT 171220Z 15007KT 6000 -RA FEW018TCU BKN025 OVC070 11/10 Q1015
LGSY - Skiros Island-Elev 15m
Απόσταση από σταθμό: ΝΑ 227km
Ενημερώθηκε: 17/01/2017 12:50
ΜΗ Ενημερωμένο METAR!
Μερικώς νεφελώδης
Μερικώς νεφελώδης
 Ανεμοι από μεταβλητός
Ανεμος: μεταβλητός 6 km/h
Θερμοκρασία: 12°C
Σημείο Δρόσου: 9°C
Υγρασία: 82%
Βαρόμετρο: 1011 hPa
Νέφωση: Μερικώς νεφελώδης
Ορατότητα: 10 km
Λεπτομέρειες Νεφών: Μερικώς νεφελώδης 610 m
Μερικώς νεφελώδης 2438 m
2017/01/17 10:50 LGSY 171050Z VRB03KT 9999 SCT020 SCT080 12/09 Q1011 RMK SCT080 FEW180 BLU
 
LGKZ - Kozani-Elev 628m
Απόσταση από σταθμό: ΔΝΔ 102km
Ενημερώθηκε: 17/01/2017 13:50
Συννεφιά
Συννεφιά
 Ανεμοι από άπνοια
Ανεμος: άπνοια
Θερμοκρασία: 2°C
Σημείο Δρόσου: 1°C
Υγρασία: 93%
Βαρόμετρο: 1013 hPa
Νέφωση: Συννεφιά
Ορατότητα: 6 km
Λεπτομέρειες Νεφών: Μερικώς νεφελώδης 61 m
Σχεδόν νεφελώδης 488 m
Συννεφιά 2134 m
2017/01/17 11:50 LGKZ 171150Z 00000KT 6000 SCT002 BKN016 OVC070 02/01 Q1013 RESN
LGIO - Ioannina-Elev 476m
Απόσταση από σταθμό: ΔΝΔ 209km
Ενημερώθηκε: 17/01/2017 14:20
Συννεφιά
Συννεφιά
 Ανεμοι από μεταβλητός
Ανεμος: μεταβλητός 0 km/h
Θερμοκρασία: 5°C
Σημείο Δρόσου: 4°C
Υγρασία: 93%
Βαρόμετρο: 1009 hPa
Νέφωση: Συννεφιά
Ορατότητα: 10 km
Λεπτομέρειες Νεφών: Διάσπαρτα Νέφη 213 m
Σχεδόν νεφελώδης 914 m
Συννεφιά 2438 m
2017/01/17 12:20 LGIO 171220Z /////KT 9999 FEW007 BKN030 OVC080 05/04 Q1009
 
LGZA - Zakinthos-Elev 3m
Απόσταση από σταθμό: ΝΝΔ 367km
Ενημερώθηκε: 17/01/2017 13:50
Σχεδόν νεφελώδης
Σχεδόν νεφελώδης
 Ανεμοι από ΒΒΑ
Ανεμος: ΒΒΑ 7 km/h
Θερμοκρασία: 10°C
Δείκτης Ψύχρας: 9°C
Σημείο Δρόσου: 8°C
Υγρασία: 88%
Βαρόμετρο: 1009 hPa
Νέφωση: Σχεδόν νεφελώδης
Ορατότητα: 10 km
Λεπτομέρειες Νεφών: Μερικώς νεφελώδης 305 m
Διάσπαρτα Νέφη 549 m
Σχεδόν νεφελώδης 610 m
Σχεδόν νεφελώδης 2438 m
2017/01/17 11:50 LGZA 171150Z 03004KT 9999 SCT010 FEW018TCU BKN020 BKN080 10/08 Q1009
LGKR - Corfu Island-Elev 2m
Απόσταση από σταθμό: ΔΝΔ 282km
Ενημερώθηκε: 17/01/2017 14:20
Ασθενής βροχή, Συννεφιά
Ασθενής βροχή, Συννεφιά
 Ανεμοι από ΝΑ
Ανεμος: ΝΑ 31 km/h
Θερμοκρασία: 10°C
Δείκτης Ψύχρας: 7°C
Σημείο Δρόσου: 7°C
Υγρασία: 82%
Βαρόμετρο: 1009 hPa
Περίληψη: Ασθενής βροχή
Νέφωση: Συννεφιά
Ορατότητα: 8 km
Λεπτομέρειες Νεφών: Μερικώς νεφελώδης 488 m
Διάσπαρτα Νέφη 549 m
Σχεδόν νεφελώδης 762 m
Συννεφιά 2438 m
2017/01/17 12:20 LGKR 171220Z 14017KT 8000 -RA SCT016 FEW018CB BKN025 OVC080 10/07 Q1009 TEMPO TSRA
 
LGSO - Syros Island-Elev 72m
Απόσταση από σταθμό: ΝΝΑ 397km
Ενημερώθηκε: 17/01/2017 13:50
Μερικώς νεφελώδης
Μερικώς νεφελώδης
 Ανεμοι από ΝΔ
Ανεμος: ΝΔ 28 km/h
Θερμοκρασία: 13°C
Σημείο Δρόσου: 8°C
Υγρασία: 72%
Βαρόμετρο: 1012 hPa
Νέφωση: Μερικώς νεφελώδης
Ορατότητα: 10 km
Λεπτομέρειες Νεφών: Διάσπαρτα Νέφη 457 m
Διάσπαρτα Νέφη 549 m
Μερικώς νεφελώδης 610 m
2017/01/17 11:50 LGSO 171150Z 23015KT 9999 FEW015 FEW018TCU SCT020 13/08 Q1012
LGMK - Mikonos Island-Elev 123m
Απόσταση από σταθμό: ΝΝΑ 412km
Ενημερώθηκε: 17/01/2017 13:50
Σχεδόν νεφελώδης
Σχεδόν νεφελώδης
 Ανεμοι από μεταβλητός
Ανεμος: μεταβλητός 4 km/h
Θερμοκρασία: 14°C
Σημείο Δρόσου: 8°C
Υγρασία: 67%
Βαρόμετρο: 1012 hPa
Νέφωση: Σχεδόν νεφελώδης
Ορατότητα: 10 km
Λεπτομέρειες Νεφών: Διάσπαρτα Νέφη 549 m
Μερικώς νεφελώδης 610 m
Σχεδόν νεφελώδης 2438 m
2017/01/17 11:50 LGMK 171150Z VRB02KT 9999 FEW018TCU SCT020 BKN080 14/08 Q1012
 
LGSR - Santorini Island-Elev 40m
Απόσταση από σταθμό: ΝΝΑ 520km
Ενημερώθηκε: 17/01/2017 14:20
Μερικώς νεφελώδης
Μερικώς νεφελώδης
 Ανεμοι από ΝΝΑ
Ανεμος: ΝΝΑ 19 km/h
Θερμοκρασία: 17°C
Σημείο Δρόσου: 7°C
Υγρασία: 52%
Βαρόμετρο: 1012 hPa
Νέφωση: Μερικώς νεφελώδης
Ορατότητα: 10 km
Λεπτομέρειες Νεφών: Διάσπαρτα Νέφη 610 m
Μερικώς νεφελώδης 762 m
2017/01/17 12:20 LGSR 171220Z 15010KT 120V180 9999 FEW020 SCT025 17/07 Q1012
LGKL - Kalamata-Elev 8m
Απόσταση από σταθμό: Ν 405km
Ενημερώθηκε: 17/01/2017 14:20
Σχεδόν νεφελώδης
Σχεδόν νεφελώδης
 Ανεμοι από ΝΑ
Ανεμος: ΝΑ 7 km/h
Θερμοκρασία: 10°C
Δείκτης Ψύχρας: 9°C
Σημείο Δρόσου: 6°C
Υγρασία: 76%
Βαρόμετρο: 1011 hPa
Νέφωση: Σχεδόν νεφελώδης
Ορατότητα: 8 km
Λεπτομέρειες Νεφών: Διάσπαρτα Νέφη 244 m
Μερικώς νεφελώδης 610 m
Σχεδόν νεφελώδης 2438 m
2017/01/17 12:20 LGKL 171220Z 13004KT 8000 FEW008 SCT020TCU BKN080 10/06 Q1011
 
LGIR - Iraklion/Crete-Elev 5m
Απόσταση από σταθμό: ΝΝΑ 622km
Ενημερώθηκε: 17/01/2017 14:20
Μερικώς νεφελώδης
Μερικώς νεφελώδης
 Ανεμοι από ΝΝΔ
Ανεμος: ΝΝΔ 15 km/h
Θερμοκρασία: 18°C
Σημείο Δρόσου: 6°C
Υγρασία: 46%
Βαρόμετρο: 1012 hPa
Νέφωση: Μερικώς νεφελώδης
Ορατότητα: 10 km
Λεπτομέρειες Νεφών: Μερικώς νεφελώδης 762 m
2017/01/17 12:20 LGIR 171220Z 20008KT 9999 SCT025 18/06 Q1012 NOSIG
LGRP - Rhodes-Elev 5m
Απόσταση από σταθμό: ΝΑ 649km
Ενημερώθηκε: 17/01/2017 14:20
Μερικώς νεφελώδης
Μερικώς νεφελώδης
 Ανεμοι από Ν
Ανεμος: Ν 7 km/h
Θερμοκρασία: 14°C
Σημείο Δρόσου: 7°C
Υγρασία: 63%
Βαρόμετρο: 1014 hPa
Νέφωση: Μερικώς νεφελώδης
Ορατότητα: 10 km
Λεπτομέρειες Νεφών: Διάσπαρτα Νέφη 366 m
Διάσπαρτα Νέφη 549 m
Μερικώς νεφελώδης 762 m
2017/01/17 12:20 LGRP 171220Z 18004KT 9999 FEW012 FEW018TCU SCT025 14/07 Q1014 NOSIG
 
LWOH - Ohrid/FYROM-Elev 761m
Απόσταση από σταθμό: ΔΒΔ 188km
Ενημερώθηκε: 17/01/2017 14:30
Σχεδόν νεφελώδης
Σχεδόν νεφελώδης
 Ανεμοι από ΒΒΔ
Ανεμος: ΒΒΔ 17 km/h
Θερμοκρασία: 3°C
Δείκτης Ψύχρας: -1°C
Σημείο Δρόσου: -3°C
Υγρασία: 65%
Βαρόμετρο: 1010 hPa
Νέφωση: Σχεδόν νεφελώδης
Ορατότητα: 10 km
Λεπτομέρειες Νεφών: Διάσπαρτα Νέφη 610 m
Σχεδόν νεφελώδης 1067 m
Σχεδόν νεφελώδης 2438 m
2017/01/17 12:30 LWOH 171230Z 33009KT 9999 FEW020 BKN035 BKN080 03/M03 Q1010
LBSF - Sofia/Bulgaria-Elev 595m
Απόσταση από σταθμό: Β 227km
Ενημερώθηκε: 17/01/2017 14:30
Συννεφιά
Συννεφιά
 Ανεμοι από ΑΝΑ
Ανεμος: ΑΝΑ 7 km/h
Θερμοκρασία: 1°C
Δείκτης Ψύχρας: -2°C
Σημείο Δρόσου: -1°C
Υγρασία: 87%
Βαρόμετρο: 1017 hPa
Νέφωση: Συννεφιά
Ορατότητα: 10 km
Λεπτομέρειες Νεφών: Συννεφιά 701 m
2017/01/17 12:30 LBSF 171230Z 12004KT 9999 OVC023 01/M01 Q1017 R99/29//95 NOSIG